This is the latest recevied weather packets stored in our database for station/object W0VI. If no packets are shown the sender has not sent any weather packets the latest 10 day(s).
| Time | Temp. | Humidity | Pressure | Rain* | Wind** | Luminosity | Snow |
|---|---|---|---|---|---|---|---|
| 1787846902 | 24.44° C | 65% | 1019.4 hPa | 0 mm | - | 631 W/m² | - |
| 1787846600 | 24.44° C | 65% | 1019.3 hPa | 0 mm | - | 634 W/m² | - |
| 1787846295 | 23.33° C | 67% | 1019 hPa | 0 mm | - | 599 W/m² | - |
| 1787845992 | 23.33° C | 68% | 1019.2 hPa | 0 mm | - | 592 W/m² | - |
| 1787845688 | 23.33° C | 68% | 1019.3 hPa | 0 mm | - | 596 W/m² | - |
| 1787845386 | 22.78° C | 68% | 1019.2 hPa | 0 mm | - | 573 W/m² | - |
| 1787845083 | 22.78° C | 71% | 1019.2 hPa | 0 mm | - | 554 W/m² | - |
| 1787844779 | 22.22° C | 71% | 1019.3 hPa | 0 mm | - | 513 W/m² | - |
| 1787844477 | 22.78° C | 71% | 1019 hPa | 0 mm | - | 521 W/m² | - |
| 1787844173 | 22.78° C | 71% | 1019.4 hPa | 0 mm | - | 523 W/m² | - |
| 1787843871 | 22.78° C | 71% | 1019.2 hPa | 0 mm | - | 514 W/m² | - |
| 1787843567 | 21.67° C | 74% | 1019.1 hPa | 0 mm | - | 483 W/m² | - |
| 1787843263 | 21.67° C | 75% | 1018.9 hPa | 0 mm | - | 480 W/m² | - |
| 1787842959 | 21.67° C | 75% | 1019.2 hPa | 0 mm | - | 455 W/m² | - |
| 1787842658 | 22.22° C | 73% | 1019.1 hPa | 0 mm | - | 422 W/m² | - |
| 1787842353 | 21.67° C | 74% | 1019.1 hPa | 0 mm | - | 393 W/m² | - |
| 1787842048 | 21.67° C | 76% | 1019.2 hPa | 0 mm | - | 388 W/m² | - |
| 1787841744 | 21.11° C | 77% | 1019.1 hPa | 0 mm | - | 366 W/m² | - |
| 1787841439 | 20.56° C | 79% | 1019.2 hPa | 0 mm | - | 327 W/m² | - |
| 1787841132 | 20.56° C | 80% | 1019 hPa | 0 mm | - | 347 W/m² | - |
| 1787840828 | 20° C | 81% | 1019.1 hPa | 0 mm | - | 318 W/m² | - |
| 1787840523 | 20° C | 81% | 1019.2 hPa | 0 mm | - | 292 W/m² | - |
| 1787840218 | 20° C | 81% | 1019 hPa | 0 mm | - | 293 W/m² | - |
| 1787839917 | 19.44° C | 83% | 1018.9 hPa | 0 mm | - | 262 W/m² | - |
| 1787839614 | 19.44° C | 83% | 1019.1 hPa | 0 mm | - | 263 W/m² | - |
* Rain latest hour (hover to see other rain measurements)
** Current wind speed in m/s (hover to see current wind gust speed)